createdAt,value
2019-02-11T00:00:46.368Z,987.47
2019-02-11T00:01:46.350Z,987.41
2019-02-11T00:02:46.368Z,987.52
2019-02-11T00:03:46.326Z,987.51
2019-02-11T00:04:46.315Z,987.47
2019-02-11T00:05:46.297Z,987.48
2019-02-11T00:06:46.294Z,987.60
2019-02-11T00:07:46.310Z,987.55
2019-02-11T00:08:46.269Z,987.59
2019-02-11T00:09:46.258Z,987.54
2019-02-11T00:10:46.265Z,987.70
2019-02-11T00:11:46.235Z,987.74
2019-02-11T00:12:46.238Z,987.72
2019-02-11T00:13:46.239Z,987.74
2019-02-11T00:14:46.208Z,987.78
2019-02-11T00:15:46.193Z,987.85
2019-02-11T00:16:46.192Z,987.77
2019-02-11T00:17:46.171Z,987.76
2019-02-11T00:18:46.182Z,987.81
2019-02-11T00:19:46.154Z,987.74
2019-02-11T00:20:47.848Z,987.97
2019-02-11T00:22:08.850Z,987.81
2019-02-11T00:22:46.152Z,987.86
2019-02-11T00:23:46.247Z,987.89
2019-02-11T00:24:46.105Z,987.82
2019-02-11T00:25:46.088Z,987.99
2019-02-11T00:26:46.076Z,987.98
2019-02-11T00:27:46.068Z,988.07
2019-02-11T00:28:46.053Z,988.06
2019-02-11T00:29:46.105Z,988.11
2019-02-11T00:30:46.036Z,988.11
2019-02-11T00:31:46.030Z,988.11
2019-02-11T00:32:46.014Z,988.10
2019-02-11T00:33:46.007Z,988.14
2019-02-11T00:34:46.018Z,988.17
2019-02-11T00:35:46.034Z,988.11
2019-02-11T00:36:45.992Z,988.16
2019-02-11T00:37:47.575Z,988.16
2019-02-11T00:38:45.949Z,988.20
2019-02-11T00:39:45.936Z,988.20
2019-02-11T00:40:45.940Z,988.29
2019-02-11T00:41:45.918Z,988.25
2019-02-11T00:42:45.907Z,988.27
2019-02-11T00:43:45.916Z,988.32
2019-02-11T00:44:45.891Z,988.28
2019-02-11T00:45:45.912Z,988.35
2019-02-11T00:46:45.900Z,988.41
2019-02-11T00:47:45.858Z,988.37
2019-02-11T00:48:45.852Z,988.31
2019-02-11T00:49:45.851Z,988.45
2019-02-11T00:50:45.816Z,988.37
2019-02-11T00:51:45.834Z,988.49
2019-02-11T00:52:45.801Z,988.44
2019-02-11T00:53:47.665Z,988.45
2019-02-11T00:54:45.779Z,988.48
2019-02-11T00:55:45.794Z,988.51
2019-02-11T00:56:45.792Z,988.55
2019-02-11T00:57:45.766Z,988.50
2019-02-11T00:58:45.740Z,988.57
2019-02-11T00:59:45.726Z,988.59
2019-02-11T01:00:45.737Z,988.69
2019-02-11T01:01:45.732Z,988.66
2019-02-11T01:02:45.747Z,988.71
2019-02-11T01:03:45.678Z,988.74
2019-02-11T01:04:45.680Z,988.85
2019-02-11T01:05:45.664Z,988.90
2019-02-11T01:06:45.657Z,988.81
2019-02-11T01:07:45.665Z,988.84
2019-02-11T01:08:45.640Z,988.87
2019-02-11T01:09:45.617Z,988.86
2019-02-11T01:10:45.604Z,988.90
2019-02-11T01:11:45.604Z,988.90
2019-02-11T01:12:45.613Z,988.97
2019-02-11T01:13:45.570Z,988.94
2019-02-11T01:14:45.567Z,989.04
2019-02-11T01:15:45.558Z,989.06
2019-02-11T01:16:45.542Z,989.08
2019-02-11T01:17:45.546Z,989.09
2019-02-11T01:18:45.526Z,989.07
2019-02-11T01:19:45.515Z,989.15
2019-02-11T01:20:45.499Z,988.98
2019-02-11T01:21:45.494Z,989.10
2019-02-11T01:22:45.497Z,989.07
2019-02-11T01:23:45.475Z,989.19
2019-02-11T01:24:45.459Z,989.26
2019-02-11T01:25:45.448Z,989.18
2019-02-11T01:26:45.439Z,989.24
2019-02-11T01:27:45.454Z,989.26
2019-02-11T01:28:45.524Z,989.30
2019-02-11T01:29:46.956Z,989.31
2019-02-11T01:30:45.467Z,989.39
2019-02-11T01:31:45.429Z,989.41
2019-02-11T01:32:46.081Z,989.37
2019-02-11T01:33:45.385Z,989.30
2019-02-11T01:34:45.356Z,989.36
2019-02-11T01:35:45.346Z,989.46
2019-02-11T01:37:13.859Z,989.34
2019-02-11T01:37:46.859Z,989.51
2019-02-11T01:38:45.455Z,989.41
2019-02-11T01:39:46.862Z,989.52
2019-02-11T01:40:45.288Z,989.58
2019-02-11T01:41:45.280Z,989.61
2019-02-11T01:42:45.274Z,989.62
2019-02-11T01:43:45.281Z,989.57
2019-02-11T01:44:45.252Z,989.65
2019-02-11T01:45:45.235Z,989.62
2019-02-11T01:46:45.236Z,989.82
2019-02-11T01:47:45.220Z,989.67
2019-02-11T01:48:45.223Z,989.71
2019-02-11T01:49:45.199Z,989.69
2019-02-11T01:50:45.186Z,989.78
2019-02-11T01:51:45.173Z,989.73
2019-02-11T01:53:54.741Z,989.78
2019-02-11T01:54:54.714Z,989.82
2019-02-11T01:55:57.667Z,989.89
2019-02-11T01:56:54.703Z,989.86
2019-02-11T01:57:54.673Z,989.87
2019-02-11T01:58:54.677Z,989.92
2019-02-11T01:59:54.659Z,989.92
2019-02-11T02:00:54.662Z,990.02
2019-02-11T02:01:54.632Z,989.94
2019-02-11T02:02:54.616Z,989.93
2019-02-11T02:03:54.635Z,989.92
2019-02-11T02:04:54.601Z,989.98
2019-02-11T02:05:54.589Z,990.04
2019-02-11T02:06:54.587Z,990.03
2019-02-11T02:07:54.571Z,990.02
2019-02-11T02:08:54.601Z,990.14
2019-02-11T02:09:54.577Z,990.04
2019-02-11T02:10:54.534Z,990.21
2019-02-11T02:11:54.529Z,990.02
2019-02-11T02:12:54.513Z,990.15
2019-02-11T02:13:54.511Z,990.27
2019-02-11T02:14:54.519Z,990.31
2019-02-11T02:15:54.486Z,990.22
2019-02-11T02:16:54.467Z,990.35
2019-02-11T02:17:54.465Z,990.36
2019-02-11T02:18:54.475Z,990.27
2019-02-11T02:19:54.442Z,990.34
2019-02-11T02:20:54.426Z,990.34
2019-02-11T02:21:54.423Z,990.33
2019-02-11T02:22:54.413Z,990.37
2019-02-11T02:24:02.293Z,990.33
2019-02-11T02:24:54.725Z,990.42
2019-02-11T02:25:55.210Z,990.59
2019-02-11T02:26:54.571Z,990.49
2019-02-11T02:27:54.352Z,990.69
2019-02-11T02:28:54.356Z,990.66
2019-02-11T02:29:54.355Z,990.58
2019-02-11T02:30:54.322Z,990.63
2019-02-11T02:31:54.305Z,990.68
2019-02-11T02:32:54.327Z,990.71
2019-02-11T02:33:54.339Z,990.77
2019-02-11T02:34:54.353Z,990.78
2019-02-11T02:35:54.283Z,990.82
2019-02-11T02:36:54.272Z,990.82
2019-02-11T02:38:09.682Z,990.85
2019-02-11T02:38:55.235Z,990.92
2019-02-11T02:39:54.282Z,990.95
2019-02-11T02:40:54.225Z,990.99
2019-02-11T02:41:54.202Z,991.00
2019-02-11T02:42:54.282Z,991.00
2019-02-11T02:43:55.828Z,991.06
2019-02-11T02:44:54.214Z,991.09
2019-02-11T02:45:54.289Z,991.10
2019-02-11T02:46:54.168Z,991.17
2019-02-11T02:47:57.806Z,991.15
2019-02-11T02:49:29.131Z,991.18
2019-02-11T02:50:27.014Z,991.16
2019-02-11T02:50:54.123Z,991.19
2019-02-11T02:51:56.204Z,991.23
2019-02-11T02:53:55.189Z,991.31
2019-02-11T02:54:54.064Z,991.29
2019-02-11T02:55:54.079Z,991.30
2019-02-11T02:56:54.046Z,991.37
2019-02-11T02:57:54.078Z,991.48
2019-02-11T02:58:54.020Z,991.50
2019-02-11T02:59:54.025Z,991.57
2019-02-11T03:01:16.763Z,991.53
2019-02-11T03:03:03.597Z,991.61
2019-02-11T03:04:03.606Z,991.64
2019-02-11T03:05:03.770Z,991.68
2019-02-11T03:06:03.581Z,991.70
2019-02-11T03:07:03.565Z,991.70
2019-02-11T03:08:03.560Z,991.68
2019-02-11T03:09:03.553Z,991.72
2019-02-11T03:10:03.542Z,991.77
2019-02-11T03:11:03.503Z,991.74
2019-02-11T03:12:03.499Z,991.81
2019-02-11T03:13:03.505Z,991.87
2019-02-11T03:14:05.871Z,991.88
2019-02-11T03:15:03.479Z,991.90
2019-02-11T03:16:03.467Z,991.97
2019-02-11T03:17:03.519Z,991.94
2019-02-11T03:18:03.459Z,991.97
2019-02-11T03:19:03.453Z,992.03
2019-02-11T03:20:03.417Z,992.09
2019-02-11T03:21:03.413Z,992.14
2019-02-11T03:22:03.401Z,992.22
2019-02-11T03:23:03.425Z,992.14
2019-02-11T03:24:03.383Z,992.28
2019-02-11T03:25:03.358Z,992.27
2019-02-11T03:26:03.367Z,992.28
2019-02-11T03:27:03.342Z,992.29
2019-02-11T03:28:03.329Z,992.28
2019-02-11T03:30:13.932Z,992.45
2019-02-11T03:31:13.898Z,992.47
2019-02-11T03:32:13.891Z,992.46
2019-02-11T03:33:13.887Z,992.62
2019-02-11T03:35:35.319Z,992.57
2019-02-11T03:37:25.365Z,992.52
2019-02-11T03:38:22.787Z,992.68
2019-02-11T03:39:22.768Z,992.67
2019-02-11T03:40:22.766Z,992.82
2019-02-11T03:41:22.874Z,992.82
2019-02-11T03:42:27.321Z,992.73
2019-02-11T03:43:23.389Z,992.75
2019-02-11T03:44:22.724Z,992.81
2019-02-11T03:45:22.705Z,992.87
2019-02-11T03:46:28.828Z,992.89
2019-02-11T03:47:24.815Z,992.97
2019-02-11T03:48:22.707Z,992.95
2019-02-11T03:49:22.701Z,992.98
2019-02-11T03:50:22.702Z,993.01
2019-02-11T03:51:22.833Z,993.11
2019-02-11T03:52:22.695Z,993.12
2019-02-11T03:53:47.953Z,993.20
2019-02-11T03:54:22.669Z,993.17
2019-02-11T03:56:23.753Z,993.22
2019-02-11T03:57:22.576Z,993.23
2019-02-11T03:58:22.576Z,993.30
2019-02-11T03:59:22.554Z,993.30
2019-02-11T04:00:22.580Z,993.36
2019-02-11T04:02:23.598Z,993.44
2019-02-11T04:03:22.628Z,993.53
2019-02-11T04:04:22.623Z,993.48
2019-02-11T04:05:22.563Z,993.47
2019-02-11T04:06:22.574Z,993.53
2019-02-11T04:07:22.553Z,993.62
2019-02-11T04:08:22.463Z,993.66
2019-02-11T04:09:22.451Z,993.68
2019-02-11T04:10:22.457Z,993.67
2019-02-11T04:11:22.429Z,993.73
2019-02-11T04:12:22.459Z,993.83
2019-02-11T04:13:22.421Z,993.85
2019-02-11T04:14:24.927Z,993.83
2019-02-11T04:16:32.907Z,994.00
2019-02-11T04:17:32.903Z,993.98
2019-02-11T04:18:32.859Z,993.97
2019-02-11T04:20:42.434Z,993.98
2019-02-11T04:21:42.419Z,994.07
2019-02-11T04:22:42.435Z,994.01
2019-02-11T04:23:42.426Z,994.08
2019-02-11T04:24:42.401Z,994.12
2019-02-11T04:25:42.382Z,994.16
2019-02-11T04:26:42.395Z,994.24
2019-02-11T04:27:42.360Z,994.19
2019-02-11T04:28:42.356Z,994.28
2019-02-11T04:29:42.341Z,994.22
2019-02-11T04:30:42.323Z,994.21
2019-02-11T04:34:09.599Z,994.37
2019-02-11T04:35:09.571Z,994.30
2019-02-11T04:36:09.554Z,994.39
2019-02-11T04:37:09.543Z,994.53
2019-02-11T04:38:09.547Z,994.41
2019-02-11T04:39:09.519Z,994.22
2019-02-11T04:40:09.548Z,994.54
2019-02-11T04:41:09.503Z,994.35
2019-02-11T04:42:09.488Z,994.52
2019-02-11T04:43:09.509Z,994.56
2019-02-11T04:45:19.072Z,994.69
2019-02-11T04:46:19.045Z,994.82
2019-02-11T04:47:19.042Z,994.77
2019-02-11T04:48:19.029Z,994.64
2019-02-11T04:49:19.017Z,994.74
2019-02-11T04:50:19.117Z,994.73
2019-02-11T04:52:28.602Z,994.79
2019-02-11T04:53:28.546Z,994.86
2019-02-11T04:54:28.533Z,994.89
2019-02-11T04:55:28.558Z,994.86
2019-02-11T04:56:28.509Z,994.98
2019-02-11T04:57:28.505Z,995.07
2019-02-11T04:58:28.524Z,995.10
2019-02-11T04:59:28.484Z,994.99
2019-02-11T05:00:28.478Z,995.09
2019-02-11T05:01:28.478Z,995.13
2019-02-11T05:02:28.450Z,995.19
2019-02-11T05:03:28.519Z,995.17
2019-02-11T05:09:31.606Z,995.19
2019-02-11T05:10:31.524Z,995.31
2019-02-11T05:11:31.518Z,995.21
2019-02-11T05:12:31.560Z,995.26
2019-02-11T05:13:33.376Z,995.25
2019-02-11T05:14:31.480Z,995.33
2019-02-11T05:15:31.484Z,995.35
2019-02-11T05:16:31.514Z,995.32
2019-02-11T05:17:31.501Z,995.36
2019-02-11T05:18:31.455Z,995.36
2019-02-11T05:19:31.457Z,995.45
2019-02-11T05:22:06.396Z,995.38
2019-02-11T05:23:05.262Z,995.49
2019-02-11T05:24:05.287Z,995.60
2019-02-11T05:25:05.222Z,995.46
2019-02-11T05:26:05.192Z,995.58
2019-02-11T05:27:05.183Z,995.56
2019-02-11T05:28:05.172Z,995.64
2019-02-11T05:29:05.184Z,995.62
2019-02-11T05:30:05.233Z,995.80
2019-02-11T05:31:05.146Z,995.68
2019-02-11T05:32:05.145Z,995.75
2019-02-11T05:33:05.897Z,995.86
2019-02-11T05:35:15.251Z,995.73
2019-02-11T05:36:15.048Z,995.80
2019-02-11T05:39:28.260Z,995.90
2019-02-11T05:40:28.198Z,995.95
2019-02-11T05:41:28.181Z,995.84
2019-02-11T05:42:28.247Z,995.92
2019-02-11T05:43:28.187Z,995.83
2019-02-11T05:44:28.204Z,995.99
2019-02-11T05:46:58.155Z,996.05
2019-02-11T05:47:56.338Z,996.01
2019-02-11T05:48:56.334Z,996.15
2019-02-11T05:49:56.293Z,996.12
2019-02-11T05:52:07.340Z,996.21
2019-02-11T05:53:07.318Z,996.12
2019-02-11T05:54:07.328Z,996.22
2019-02-11T05:55:07.299Z,996.31
2019-02-11T05:56:07.293Z,996.33
2019-02-11T05:57:07.274Z,996.36
2019-02-11T05:58:07.260Z,996.35
2019-02-11T05:59:07.287Z,996.46
2019-02-11T06:00:07.264Z,996.36
2019-02-11T06:01:07.245Z,996.42
2019-02-11T06:02:07.236Z,996.49
2019-02-11T06:03:09.415Z,996.51
2019-02-11T06:04:07.306Z,996.57
2019-02-11T06:06:08.257Z,996.64
2019-02-11T06:07:28.170Z,996.66
2019-02-11T06:08:07.165Z,996.61
2019-02-11T06:09:07.148Z,996.64
2019-02-11T06:10:07.261Z,996.67
2019-02-11T06:11:09.243Z,996.59
2019-02-11T06:12:07.153Z,996.63
2019-02-11T06:14:08.227Z,996.73
2019-02-11T06:15:28.232Z,996.84
2019-02-11T06:16:07.076Z,996.83
2019-02-11T06:17:07.140Z,996.82
2019-02-11T06:18:07.162Z,996.87
2019-02-11T06:19:07.046Z,996.89
2019-02-11T06:20:07.051Z,996.88
2019-02-11T06:21:07.026Z,996.88
2019-02-11T06:22:07.056Z,996.96
2019-02-11T06:23:06.996Z,997.03
2019-02-11T06:24:06.991Z,997.00
2019-02-11T06:25:06.999Z,997.09
2019-02-11T06:26:06.977Z,997.12
2019-02-11T06:27:06.954Z,997.12
2019-02-11T06:28:06.942Z,997.11
2019-02-11T06:29:06.933Z,997.07
2019-02-11T06:30:06.957Z,997.09
2019-02-11T06:31:06.955Z,997.15
2019-02-11T06:32:06.957Z,997.16
2019-02-11T06:33:06.906Z,997.17
2019-02-11T06:34:07.778Z,997.22
2019-02-11T06:35:06.895Z,997.21
2019-02-11T06:36:12.444Z,997.20
2019-02-11T06:37:07.872Z,997.22
2019-02-11T06:38:06.841Z,997.28
2019-02-11T06:39:06.831Z,997.25
2019-02-11T06:40:06.874Z,997.19
2019-02-11T06:41:06.887Z,997.29
2019-02-11T06:42:06.804Z,997.32
2019-02-11T06:43:06.911Z,997.34
2019-02-11T06:45:13.175Z,997.39
2019-02-11T06:46:06.762Z,997.36
2019-02-11T06:47:06.742Z,997.47
2019-02-11T06:48:06.733Z,997.53
2019-02-11T06:50:37.436Z,997.57
2019-02-11T06:51:16.331Z,997.63
2019-02-11T06:52:16.309Z,997.63
2019-02-11T06:53:16.294Z,997.81
2019-02-11T06:54:16.274Z,997.77
2019-02-11T06:55:16.229Z,997.89
2019-02-11T06:56:16.255Z,997.79
2019-02-11T06:57:16.195Z,997.81
2019-02-11T06:58:16.184Z,997.84
2019-02-11T06:59:16.232Z,997.92
2019-02-11T07:00:16.194Z,997.95
2019-02-11T07:01:16.175Z,997.87
2019-02-11T07:02:16.148Z,998.05
2019-02-11T07:03:16.126Z,997.86
2019-02-11T07:04:16.114Z,997.94
2019-02-11T07:05:16.106Z,998.00
2019-02-11T07:06:16.132Z,997.95
2019-02-11T07:07:16.088Z,997.97
2019-02-11T07:08:16.089Z,998.06
2019-02-11T07:09:16.103Z,998.07
2019-02-11T07:10:16.077Z,998.08
2019-02-11T07:11:16.068Z,998.10
2019-02-11T07:12:16.124Z,998.11
2019-02-11T07:13:16.034Z,998.17
2019-02-11T07:14:16.027Z,998.15
2019-02-11T07:15:21.689Z,998.14
2019-02-11T07:16:16.989Z,998.18
2019-02-11T07:17:16.063Z,998.29
2019-02-11T07:19:17.034Z,998.24
2019-02-11T07:20:15.979Z,998.30
2019-02-11T07:21:15.958Z,998.35
2019-02-11T07:22:15.948Z,998.30
2019-02-11T07:23:15.937Z,998.28
2019-02-11T07:24:15.906Z,998.34
2019-02-11T07:25:16.581Z,998.43
2019-02-11T07:26:15.882Z,998.54
2019-02-11T07:27:15.980Z,998.37
2019-02-11T07:28:16.033Z,998.35
2019-02-11T07:29:15.886Z,998.50
2019-02-11T07:30:15.886Z,998.59
2019-02-11T07:31:15.865Z,998.61
2019-02-11T07:32:15.818Z,998.71
2019-02-11T07:33:15.808Z,998.68
2019-02-11T07:34:15.827Z,998.70
2019-02-11T07:35:15.793Z,998.72
2019-02-11T07:36:15.779Z,998.76
2019-02-11T07:37:15.782Z,998.81
2019-02-11T07:38:15.758Z,998.73
2019-02-11T07:39:15.838Z,998.74
2019-02-11T07:40:15.782Z,998.78
2019-02-11T07:41:15.830Z,998.79
2019-02-11T07:42:15.735Z,998.87
2019-02-11T07:43:15.729Z,998.79
2019-02-11T07:44:15.695Z,998.88
2019-02-11T07:45:15.742Z,998.87
2019-02-11T07:46:15.674Z,998.88
2019-02-11T07:47:15.660Z,998.88
2019-02-11T07:48:15.659Z,998.93
2019-02-11T07:49:15.673Z,999.00
2019-02-11T07:50:15.645Z,999.08
2019-02-11T07:51:15.617Z,999.00
2019-02-11T07:52:15.643Z,999.07
2019-02-11T07:53:15.600Z,999.03
2019-02-11T07:54:15.594Z,998.99
2019-02-11T07:55:15.573Z,999.09
2019-02-11T07:56:15.584Z,999.14
2019-02-11T07:57:15.550Z,999.12
2019-02-11T07:58:15.555Z,999.04
2019-02-11T07:59:15.533Z,999.11
2019-02-11T08:00:15.541Z,999.16
2019-02-11T08:01:15.543Z,999.13
2019-02-11T08:02:15.560Z,999.16
2019-02-11T08:03:15.561Z,999.13
2019-02-11T08:04:15.505Z,999.17
2019-02-11T08:05:15.482Z,999.14
2019-02-11T08:06:15.481Z,999.14
2019-02-11T08:07:15.529Z,999.21
2019-02-11T08:08:15.438Z,999.21
2019-02-11T08:09:15.423Z,999.27
2019-02-11T08:10:15.424Z,999.23
2019-02-11T08:11:15.411Z,999.28
2019-02-11T08:12:15.446Z,999.26
2019-02-11T08:13:15.387Z,999.24
2019-02-11T08:14:15.369Z,999.29
2019-02-11T08:15:15.356Z,999.26
2019-02-11T08:16:15.445Z,999.37
2019-02-11T08:17:15.557Z,999.33
2019-02-11T08:18:15.367Z,999.31
2019-02-11T08:19:15.371Z,999.33
2019-02-11T08:20:15.371Z,999.35
2019-02-11T08:21:15.290Z,999.41
2019-02-11T08:22:15.330Z,999.44
2019-02-11T08:23:15.279Z,999.46
2019-02-11T08:24:15.262Z,999.49
2019-02-11T08:25:15.266Z,999.52
2019-02-11T08:26:15.251Z,999.52
2019-02-11T08:27:15.244Z,999.45
2019-02-11T08:28:19.633Z,999.44
2019-02-11T08:29:15.211Z,999.55
2019-02-11T08:30:15.199Z,999.57
2019-02-11T08:31:15.195Z,999.58
2019-02-11T08:32:15.181Z,999.61
2019-02-11T08:33:15.231Z,999.72
2019-02-11T08:34:31.658Z,999.68
2019-02-11T08:37:16.703Z,999.69
2019-02-11T08:42:44.781Z,999.86
2019-02-11T08:43:44.770Z,999.97
2019-02-11T08:44:44.789Z,1000.02
2019-02-11T08:45:47.157Z,999.98
2019-02-11T08:46:44.723Z,1000.03
2019-02-11T08:47:44.726Z,1000.03
2019-02-11T08:48:44.727Z,1000.08
2019-02-11T08:49:44.706Z,1000.08
2019-02-11T08:50:44.682Z,1000.07
2019-02-11T08:51:44.679Z,1000.08
2019-02-11T08:52:44.694Z,1000.13
2019-02-11T08:53:44.695Z,1000.16
2019-02-11T08:54:44.667Z,1000.12
2019-02-11T08:55:44.619Z,1000.31
2019-02-11T08:56:44.616Z,1000.28
2019-02-11T08:57:44.601Z,1000.43
2019-02-11T08:59:45.608Z,1000.30
2019-02-11T09:00:44.572Z,1000.35
2019-02-11T09:01:44.595Z,1000.30
2019-02-11T09:02:44.570Z,1000.44
2019-02-11T09:03:44.541Z,1000.42
2019-02-11T09:04:44.531Z,1000.46
2019-02-11T09:05:44.541Z,1000.46
2019-02-11T09:06:44.515Z,1000.60
2019-02-11T09:07:44.496Z,1000.41
2019-02-11T09:08:44.496Z,1000.56
2019-02-11T09:09:44.476Z,1000.61
2019-02-11T09:10:44.487Z,1000.54
2019-02-11T09:11:44.464Z,1000.66
2019-02-11T09:12:44.439Z,1000.81
2019-02-11T09:13:44.455Z,1000.59
2019-02-11T09:14:44.433Z,1001.08
2019-02-11T09:15:44.411Z,1000.77
2019-02-11T09:16:44.433Z,1000.88
2019-02-11T09:17:44.388Z,1000.75
2019-02-11T09:18:44.387Z,1000.87
2019-02-11T09:19:44.377Z,1000.89
2019-02-11T09:20:44.384Z,1000.87
2019-02-11T09:21:44.396Z,1000.89
2019-02-11T09:22:44.333Z,1000.95
2019-02-11T09:23:44.345Z,1001.06
2019-02-11T09:24:44.318Z,1000.97
2019-02-11T09:25:44.314Z,1001.16
2019-02-11T09:26:44.295Z,1001.24
2019-02-11T09:27:44.327Z,1001.16
2019-02-11T09:28:44.279Z,1001.15
2019-02-11T09:29:44.280Z,1001.22
2019-02-11T09:30:44.253Z,1001.18
2019-02-11T09:31:44.249Z,1001.25
2019-02-11T09:32:44.275Z,1001.23
2019-02-11T09:33:44.227Z,1001.26
2019-02-11T09:34:44.203Z,1001.17
2019-02-11T09:35:44.199Z,1001.26
2019-02-11T09:36:44.190Z,1001.37
2019-02-11T09:37:59.303Z,1001.44
2019-02-11T09:38:44.256Z,1001.42
2019-02-11T09:40:45.212Z,1001.38
2019-02-11T09:42:05.137Z,1001.38
2019-02-11T09:42:44.121Z,1001.54
2019-02-11T09:43:44.125Z,1001.59
2019-02-11T09:44:44.162Z,1001.46
2019-02-11T09:46:53.633Z,1001.52
2019-02-11T09:47:53.600Z,1001.63
2019-02-11T09:48:53.597Z,1001.58
2019-02-11T09:49:53.589Z,1001.63
2019-02-11T09:50:53.565Z,1001.67
2019-02-11T09:51:53.553Z,1001.69
2019-02-11T09:52:53.547Z,1001.67
2019-02-11T09:53:53.596Z,1001.65
2019-02-11T09:54:53.527Z,1001.64
2019-02-11T09:55:53.513Z,1001.66
2019-02-11T09:56:53.498Z,1001.72
2019-02-11T09:57:54.081Z,1001.73
2019-02-11T09:58:53.508Z,1001.70
2019-02-11T09:59:53.465Z,1001.79
2019-02-11T10:00:53.462Z,1001.72
2019-02-11T10:01:53.446Z,1001.70
2019-02-11T10:02:53.435Z,1001.84
2019-02-11T10:03:53.430Z,1001.80
2019-02-11T10:04:53.434Z,1001.85
2019-02-11T10:05:53.402Z,1001.80
2019-02-11T10:06:53.396Z,1001.91
2019-02-11T10:07:53.380Z,1002.01
2019-02-11T10:08:53.374Z,1001.84
2019-02-11T10:09:53.387Z,1001.84
2019-02-11T10:10:53.351Z,1001.85
2019-02-11T10:11:53.385Z,1001.95
2019-02-11T10:12:53.333Z,1002.03
2019-02-11T10:13:53.314Z,1001.92
2019-02-11T10:14:53.323Z,1002.05
2019-02-11T10:15:53.300Z,1001.94
2019-02-11T10:16:53.291Z,1001.96
2019-02-11T10:17:53.285Z,1001.98
2019-02-11T10:18:53.271Z,1001.99
2019-02-11T10:19:53.291Z,1002.04
2019-02-11T10:20:53.255Z,1002.13
2019-02-11T10:21:53.235Z,1002.07
2019-02-11T10:22:53.217Z,1002.11
2019-02-11T10:23:53.223Z,1002.20
2019-02-11T10:24:53.229Z,1002.22
2019-02-11T10:25:53.200Z,1002.13
2019-02-11T10:26:53.205Z,1002.23
2019-02-11T10:27:53.168Z,1002.20
2019-02-11T10:28:53.160Z,1002.25
2019-02-11T10:29:53.186Z,1002.23
2019-02-11T10:30:53.152Z,1002.27
2019-02-11T10:31:53.128Z,1002.32
2019-02-11T10:32:53.120Z,1002.21
2019-02-11T10:33:53.105Z,1002.51
2019-02-11T10:34:53.097Z,1002.37
2019-02-11T10:35:53.126Z,1002.30
2019-02-11T10:36:53.101Z,1002.39
2019-02-11T10:37:53.064Z,1002.46
2019-02-11T10:38:53.068Z,1002.31
2019-02-11T10:39:53.045Z,1002.38
2019-02-11T10:40:53.049Z,1002.41
2019-02-11T10:41:53.055Z,1002.52
2019-02-11T10:42:53.016Z,1002.41
2019-02-11T10:43:52.998Z,1002.43
2019-02-11T10:44:52.993Z,1002.50
2019-02-11T10:45:55.119Z,1002.38
2019-02-11T10:46:52.999Z,1002.47
2019-02-11T10:47:52.977Z,1002.51
2019-02-11T10:48:52.965Z,1002.48
2019-02-11T10:49:52.969Z,1002.53
2019-02-11T10:50:53.012Z,1002.54
2019-02-11T10:51:52.906Z,1002.54
2019-02-11T10:52:52.895Z,1002.74
2019-02-11T10:53:52.894Z,1002.51
2019-02-11T10:54:52.873Z,1002.54
2019-02-11T10:55:52.881Z,1002.58
2019-02-11T10:56:52.849Z,1002.56
2019-02-11T10:57:52.844Z,1002.64
2019-02-11T10:58:52.825Z,1002.55
2019-02-11T10:59:52.822Z,1002.61
2019-02-11T11:00:52.895Z,1002.70
2019-02-11T11:01:52.840Z,1002.73
2019-02-11T11:02:52.790Z,1002.68
2019-02-11T11:03:52.842Z,1002.87
2019-02-11T11:04:52.766Z,1002.74
2019-02-11T11:05:52.774Z,1002.73
2019-02-11T11:06:52.741Z,1002.75
2019-02-11T11:07:52.737Z,1002.96
2019-02-11T11:08:52.741Z,1002.87
2019-02-11T11:09:52.749Z,1002.80
2019-02-11T11:10:52.735Z,1002.82
2019-02-11T11:11:52.699Z,1002.82
2019-02-11T11:12:52.716Z,1002.86
2019-02-11T11:13:52.681Z,1002.84
2019-02-11T11:14:52.660Z,1003.06
2019-02-11T11:15:52.664Z,1002.92
2019-02-11T11:16:52.638Z,1003.02
2019-02-11T11:17:52.625Z,1002.98
2019-02-11T11:18:52.633Z,1003.15
2019-02-11T11:19:52.601Z,1003.04
2019-02-11T11:20:52.619Z,1003.15
2019-02-11T11:21:52.577Z,1003.07
2019-02-11T11:22:52.568Z,1003.10
2019-02-11T11:23:52.556Z,1003.18
2019-02-11T11:24:52.546Z,1003.21
2019-02-11T11:25:52.547Z,1003.20
2019-02-11T11:26:52.549Z,1003.16
2019-02-11T11:27:52.514Z,1003.16
2019-02-11T11:28:52.509Z,1003.21
2019-02-11T11:29:52.497Z,1003.23
2019-02-11T11:30:52.481Z,1003.27
2019-02-11T11:31:52.489Z,1003.17
2019-02-11T11:32:52.463Z,1003.48
2019-02-11T11:33:52.452Z,1003.53
2019-02-11T11:34:52.438Z,1003.35
2019-02-11T11:35:52.456Z,1003.23
2019-02-11T11:36:52.452Z,1003.36
2019-02-11T11:37:52.412Z,1003.33
2019-02-11T11:38:52.395Z,1003.32
2019-02-11T11:39:52.382Z,1003.40
2019-02-11T11:40:52.369Z,1003.31
2019-02-11T11:41:52.386Z,1003.37
2019-02-11T11:42:52.365Z,1003.44
2019-02-11T11:43:52.353Z,1003.36
2019-02-11T11:44:52.330Z,1003.37
2019-02-11T11:45:52.319Z,1003.46
2019-02-11T11:46:52.346Z,1003.46
2019-02-11T11:47:52.303Z,1003.43
2019-02-11T11:48:52.291Z,1003.53
2019-02-11T11:49:52.280Z,1003.50
2019-02-11T11:50:52.266Z,1003.53
2019-02-11T11:51:52.276Z,1003.49
2019-02-11T11:52:52.245Z,1003.57
2019-02-11T11:53:52.235Z,1003.64
2019-02-11T11:54:52.229Z,1003.56
2019-02-11T11:55:52.217Z,1003.50
2019-02-11T11:56:52.235Z,1003.75
2019-02-11T11:57:52.192Z,1003.77
2019-02-11T11:58:52.185Z,1003.72
2019-02-11T11:59:52.173Z,1003.75
2019-02-11T12:00:52.172Z,1003.79
2019-02-11T12:01:52.187Z,1003.75
2019-02-11T12:03:01.597Z,1003.80
2019-02-11T12:03:53.131Z,1003.78
2019-02-11T12:04:52.149Z,1003.83
2019-02-11T12:05:52.120Z,1003.91
2019-02-11T12:06:52.092Z,1003.78
2019-02-11T12:07:52.118Z,1003.77
2019-02-11T12:08:52.079Z,1003.85
2019-02-11T12:09:52.066Z,1003.91
2019-02-11T12:10:52.053Z,1003.72
2019-02-11T12:11:52.046Z,1003.91
2019-02-11T12:12:52.081Z,1003.88
2019-02-11T12:13:52.017Z,1003.93
2019-02-11T12:14:52.010Z,1003.96
2019-02-11T12:15:52.000Z,1004.00
2019-02-11T12:16:56.832Z,1004.11
2019-02-11T12:17:53.002Z,1004.03
2019-02-11T12:18:51.985Z,1004.03
2019-02-11T12:19:51.954Z,1003.98
2019-02-11T12:20:51.949Z,1004.12
2019-02-11T12:21:51.973Z,1004.05
2019-02-11T12:22:51.949Z,1004.01
2019-02-11T12:23:51.913Z,1004.19
2019-02-11T12:24:51.909Z,1004.11
2019-02-11T12:25:51.888Z,1004.21
2019-02-11T12:26:51.884Z,1004.18
2019-02-11T12:27:51.902Z,1004.19
2019-02-11T12:28:51.869Z,1004.20
2019-02-11T12:29:51.848Z,1004.29
2019-02-11T12:30:53.749Z,1004.24
2019-02-11T12:31:51.845Z,1004.22
2019-02-11T12:32:54.631Z,1004.22
2019-02-11T12:33:51.809Z,1004.30
2019-02-11T12:34:51.804Z,1004.37
2019-02-11T12:35:51.784Z,1004.30
2019-02-11T12:36:51.781Z,1004.31
2019-02-11T12:37:51.792Z,1004.38
2019-02-11T12:38:51.795Z,1004.37
2019-02-11T12:39:51.756Z,1004.43
2019-02-11T12:40:51.740Z,1004.58
2019-02-11T12:41:51.758Z,1004.49
2019-02-11T12:42:53.008Z,1004.61
2019-02-11T12:43:51.699Z,1004.65
2019-02-11T12:44:51.687Z,1004.52
2019-02-11T12:45:51.686Z,1004.60
2019-02-11T12:46:51.689Z,1004.71
2019-02-11T12:47:51.695Z,1004.68
2019-02-11T12:48:51.636Z,1004.68
2019-02-11T12:49:51.641Z,1004.77
2019-02-11T12:50:51.635Z,1004.67
2019-02-11T12:51:51.615Z,1004.81
2019-02-11T12:52:51.694Z,1004.71
2019-02-11T12:53:51.586Z,1004.66
2019-02-11T12:54:51.593Z,1004.74
2019-02-11T12:55:51.571Z,1004.70
2019-02-11T12:56:51.555Z,1004.68
2019-02-11T12:57:51.559Z,1004.71
2019-02-11T12:58:51.569Z,1004.86
2019-02-11T12:59:51.514Z,1004.81
2019-02-11T13:00:51.513Z,1004.87
2019-02-11T13:01:51.499Z,1004.82
2019-02-11T13:02:51.500Z,1004.82
2019-02-11T13:03:51.510Z,1004.90